• Join FlightAware (Why Join?)
  • Login
  • US Flag 
10:36PM EDT


 

Airport Tracker/Info


-or-


 

Live Flight TrackerFlight Track Log ✈ N600AJ ✈ 11-Apr-2012 ✈ KTEB - KROC

Flight Track Log - Related Links

Times and Time Zones

All times are in EDT time to prevent confusion due to time zone crossing. See the N600AJ flight status page for this flight to view local times or setup timezone preferences in your user account.

Time Position Orientation Groundspeed Altitude Reporting Facility
EDT Latitude Longitude Course Direction KTS MPH feet Rate Location/Type
10:23PM 40.8546 -74.0926 344° North  Level FlightAware Approximate
10:24PM 40.9167 -74.1167 303° West 238 274 4,600  Level New York TRACON
10:26PM 41.0244 -74.3383 316° Northwest 311 358 16,000 4,620 Climbing New York Center
10:27PM 41.0986 -74.4331 308° West 349 402 20,700 3,000 Climbing New York Center
10:28PM 41.1697 -74.5553 307° West 376 433 22,000 600 Climbing New York Center
10:29PM 41.2444 -74.6892 307° West 421 484 22,000  Level New York Center
10:30PM 41.3153 -74.8122 308° West 426 490 22,000  Level New York Center
10:31PM 41.3919 -74.9411 307° West 432 497 22,000  Level New York Center
10:32PM 41.4625 -75.0675 306° West 432 497 22,000  Level New York Center
10:33PM 41.5308 -75.1936 308° West 427 491 22,000  Level New York Center
10:34PM 41.6031 -75.3178 307° West 427 491 22,000  Level New York Center
10:35PM 41.6753 -75.4447 307° West 427 491 22,000  Level New York Center
10:36PM 41.7472 -75.5722 307° West 427 491 22,000  Level New York Center
10:37PM 41.8189 -75.7000 306° West 427 491 22,000  Level New York Center
10:38PM 41.8961 -75.8450 307° West 432 497 22,000  Level New York Center
10:39PM 41.9675 -75.9731 308° West 432 497 22,000  Level New York Center
10:40PM 42.0411 -76.1017 305° West 432 497 22,000  Level New York Center
10:41PM 42.1100 -76.2331 307° West 432 497 22,000  Level New York Center
10:42PM 42.1811 -76.3622 306° West 432 497 22,000  Level New York Center
10:43PM 42.2500 -76.4911 307° West 427 491 22,000 -540 Level New York Center
10:45PM 42.3478 -76.6692 306° West 427 491 20,800 -1,620 Descending Cleveland Center
10:46PM 42.4125 -76.7892 307° West 411 473 18,200 -2,580 Descending Cleveland Center
10:47PM 42.4789 -76.9089 306° West 405 466 15,700 -2,520 Descending Cleveland Center
10:47PM 42.5208 -76.9883 318° Northwest 380 437 14,000 -2,400 Descending Cleveland Center
10:49PM 42.6075 -77.0933 320° Northwest 353 406 11,100 -1,440 Descending Cleveland Center
10:50PM 42.6789 -77.1742 296° West 327 376 10,900 -540 Descending Cleveland Center
10:51PM 42.7150 -77.2739 281° West 288 331 10,100 -1,080 Descending Cleveland Center
10:52PM 42.7281 -77.3694 284° West 278 320 8,900 -1,680 Descending Cleveland Center
10:53PM 42.7456 -77.4675 278° West 269 310 6,900 -1,920 Descending Cleveland Center
10:54PM 42.7567 -77.5744 291° West 275 316 4,900 -1,440 Descending Cleveland Center
10:55PM 42.7797 -77.6581 300° West 227 261 4,000 -540 Descending Cleveland Center
10:56PM 42.8061 -77.7192 324° Northwest 214 246 3,900  Descending Cleveland Center
10:57PM 42.8447 -77.7569 326° Northwest 183 211 4,000  Climbing Cleveland Center
10:58PM 42.8831 -77.7922 357° North 179 206 4,000 -120 Level Cleveland Center
10:59PM 42.9331 -77.7956 North 177 204 3,800 -540 Descending Cleveland Center
11:00PM 42.9808 -77.7906 29° Northeast 177 204 3,000 -900 Descending Cleveland Center
11:01PM 43.0197 -77.7606 30° Northeast 169 194 2,000 -660 Descending Cleveland Center
11:02PM 43.0586 -77.7303 30° Northeast 146 168 1,700 -300 Descending Cleveland Center